Time;durP1;ratioP1;P1;durP2;ratioP2;P2;SDS_P1;SDS_P2;PMS_P1;PMS_P2;Temp;Humidity;BMP_temperature;BMP_pressure;BME280_temperature;BME280_humidity;BME280_pressure;Samples;Min_cycle;Max_cycle;Signal;HPM_P1;HPM_P2
2022/12/12 00:00:18;;;;;;;25.42;16.00;;;1.90;78.20;;;;;;5116318;27;20042;-73
2022/12/12 00:02:44;;;;;;;26.90;16.13;;;1.90;78.20;;;;;;5118514;27;20057;-73
2022/12/12 00:05:14;;;;;;;27.30;16.57;;;1.90;78.20;;;;;;5101275;27;20466;-73
2022/12/12 00:07:40;;;;;;;25.87;16.00;;;1.90;78.20;;;;;;5126849;27;20039;-73
2022/12/12 00:10:07;;;;;;;27.27;15.30;;;1.90;78.20;;;;;;5133230;27;20037;-67
2022/12/12 00:12:32;;;;;;;27.03;16.07;;;1.90;78.20;;;;;;5121549;27;20405;-73
2022/12/12 00:14:58;;;;;;;27.43;16.17;;;1.90;78.20;;;;;;5133060;27;20110;-68
2022/12/12 00:17:24;;;;;;;26.17;16.00;;;1.90;78.20;;;;;;5126264;27;20047;-68
2022/12/12 00:19:49;;;;;;;23.70;15.37;;;2.00;78.20;;;;;;5121169;27;20070;-67
2022/12/12 00:22:15;;;;;;;25.70;16.17;;;1.90;78.10;;;;;;5130669;27;20397;-73
2022/12/12 00:24:41;;;;;;;24.55;14.77;;;2.00;77.90;;;;;;5119312;27;20076;-73
2022/12/12 00:27:07;;;;;;;25.30;15.10;;;1.90;77.90;;;;;;5125266;27;20133;-73
2022/12/12 00:29:32;;;;;;;22.43;14.80;;;1.90;77.80;;;;;;5098548;27;20470;-73
2022/12/12 00:31:58;;;;;;;24.20;14.83;;;2.00;77.90;;;;;;5100498;27;20106;-73
2022/12/12 00:34:24;;;;;;;27.20;15.47;;;2.00;78.00;;;;;;5123773;27;20043;-73
2022/12/12 00:36:50;;;;;;;24.17;14.43;;;2.00;78.00;;;;;;5110591;27;20047;-73
2022/12/12 00:39:17;;;;;;;22.73;14.23;;;2.00;78.00;;;;;;5115752;27;20039;-73
2022/12/12 00:41:43;;;;;;;26.90;16.13;;;2.00;78.00;;;;;;5115994;27;20485;-73
2022/12/12 00:44:09;;;;;;;27.73;17.23;;;2.30;78.20;;;;;;5132864;27;20095;-73
2022/12/12 00:46:35;;;;;;;24.50;14.85;;;2.00;77.90;;;;;;5124966;27;20047;-73
2022/12/12 00:49:01;;;;;;;24.13;14.97;;;2.00;77.80;;;;;;5116324;27;20057;-73
2022/12/12 00:51:28;;;;;;;25.07;15.80;;;2.00;77.60;;;;;;5130904;27;20447;-73
2022/12/12 00:53:54;;;;;;;24.70;16.57;;;2.00;78.10;;;;;;5108247;27;20131;-73
2022/12/12 00:56:21;;;;;;;24.25;15.23;;;2.00;77.70;;;;;;5124503;27;20031;-73
2022/12/12 00:58:48;;;;;;;23.73;15.60;;;2.00;77.70;;;;;;5124108;27;20492;-73
2022/12/12 01:01:20;;;;;;;26.33;15.07;;;2.10;77.60;;;;;;5118333;27;20043;-73
2022/12/12 01:03:46;;;;;;;24.60;13.87;;;2.10;77.40;;;;;;5124606;27;20394;-73
2022/12/12 01:06:12;;;;;;;25.13;15.23;;;2.00;77.10;;;;;;5098873;27;20045;-73
2022/12/12 01:08:39;;;;;;;22.27;14.40;;;2.00;77.10;;;;;;5129442;27;20444;-72
2022/12/12 01:11:06;;;;;;;26.80;15.83;;;2.00;77.10;;;;;;5115114;27;20173;-73
2022/12/12 01:13:32;;;;;;;23.90;15.07;;;2.00;77.00;;;;;;5103162;27;20027;-73
2022/12/12 01:15:58;;;;;;;25.43;15.17;;;2.00;77.00;;;;;;5095325;28;20043;-73
2022/12/12 01:18:24;;;;;;;23.80;14.47;;;2.00;77.10;;;;;;5095327;28;20557;-73
2022/12/12 01:20:50;;;;;;;24.00;14.73;;;2.00;77.10;;;;;;5111457;28;20089;-72
2022/12/12 01:23:15;;;;;;;24.70;14.32;;;2.00;77.10;;;;;;5113005;28;20110;-73
2022/12/12 01:25:41;;;;;;;20.75;13.07;;;2.00;77.20;;;;;;5095081;28;20071;-73
2022/12/12 01:28:07;;;;;;;23.33;13.03;;;2.00;77.30;;;;;;5111775;28;20518;-73
2022/12/12 01:30:33;;;;;;;26.13;14.33;;;2.00;77.40;;;;;;5112164;28;20039;-73
2022/12/12 01:32:59;;;;;;;25.00;14.73;;;2.00;77.50;;;;;;5111644;28;20044;-73
2022/12/12 01:35:26;;;;;;;25.47;15.00;;;2.00;77.50;;;;;;5094845;28;20042;-73
2022/12/12 01:37:51;;;;;;;24.63;15.33;;;2.00;77.50;;;;;;5094807;28;20040;-73
2022/12/12 01:40:24;;;;;;;22.10;13.47;;;2.00;77.40;;;;;;5111159;28;20118;-73
2022/12/12 01:42:51;;;;;;;23.00;14.23;;;2.00;77.30;;;;;;5116110;28;20422;-73
2022/12/12 01:45:54;;;;;;;19.08;12.98;;;2.00;77.20;;;;;;5115611;28;20241;-73
2022/12/12 01:48:22;;;;;;;24.33;14.37;;;2.10;77.30;;;;;;5115539;28;20062;-73
2022/12/12 01:50:49;;;;;;;19.65;13.00;;;2.10;77.40;;;;;;5115547;28;20070;-73
2022/12/12 01:53:17;;;;;;;20.90;13.80;;;2.10;77.50;;;;;;5099189;28;20039;-73
2022/12/12 01:55:43;;;;;;;20.33;13.10;;;2.10;77.50;;;;;;5098566;28;20164;-73
2022/12/12 01:58:10;;;;;;;22.77;13.40;;;2.10;77.90;;;;;;5098570;28;20035;-73
2022/12/12 02:00:35;;;;;;;18.70;12.48;;;2.10;77.50;;;;;;5115656;28;20050;-73
2022/12/12 02:03:01;;;;;;;25.50;14.75;;;2.10;77.60;;;;;;5098899;28;20043;-73
2022/12/12 02:05:37;;;;;;;19.52;12.25;;;2.20;77.60;;;;;;5081346;28;20046;-73
2022/12/12 02:08:04;;;;;;;20.93;12.93;;;2.20;77.60;;;;;;5107909;28;20036;-73
2022/12/12 02:10:30;;;;;;;21.97;14.10;;;2.20;77.50;;;;;;5115155;28;20109;-73
2022/12/12 02:13:04;;;;;;;23.40;14.23;;;2.20;77.40;;;;;;5098007;28;20055;-73
2022/12/12 02:15:39;;;;;;;20.58;12.70;;;2.30;77.30;;;;;;5115126;28;20063;-73
2022/12/12 02:18:21;;;;;;;19.15;12.85;;;2.20;77.20;;;;;;5118739;27;20062;-73
2022/12/12 02:20:50;;;;;;;23.27;13.75;;;2.40;77.30;;;;;;5101851;27;20054;-73
2022/12/12 02:23:18;;;;;;;25.03;14.33;;;2.30;77.20;;;;;;5127472;27;20071;-73
2022/12/12 02:25:58;;;;;;;23.93;14.43;;;2.20;76.70;;;;;;5131667;27;20055;-73
2022/12/12 02:28:23;;;;;;;21.50;13.60;;;2.20;76.50;;;;;;5127823;27;20042;-73
2022/12/12 02:31:23;;;;;;;21.58;13.35;;;2.30;76.40;;;;;;5113207;27;20043;-74
2022/12/12 02:34:02;;;;;;;24.35;14.57;;;2.20;76.40;;;;;;5113871;27;20046;-73
2022/12/12 02:36:58;;;;;;;20.27;12.93;;;2.20;76.40;;;;;;5111165;27;20136;-73
2022/12/12 02:39:35;;;;;;;23.25;13.73;;;2.20;76.30;;;;;;5129168;27;20097;-73
2022/12/12 02:42:13;;;;;;;22.83;13.98;;;2.20;76.40;;;;;;5130952;27;20130;-73
2022/12/12 02:44:41;;;;;;;20.90;13.27;;;2.20;76.30;;;;;;5121441;27;20118;-73
2022/12/12 02:47:17;;;;;;;20.42;13.38;;;2.20;76.20;;;;;;5122923;27;20383;-73
2022/12/12 02:49:54;;;;;;;24.60;13.97;;;2.20;76.30;;;;;;5110830;27;20035;-73
2022/12/12 02:52:21;;;;;;;23.90;14.43;;;2.20;76.40;;;;;;5121799;27;20075;-73
2022/12/12 02:54:47;;;;;;;18.33;11.40;;;2.20;76.10;;;;;;5118245;27;20043;-73
2022/12/12 02:57:20;;;;;;;21.97;13.57;;;2.20;76.50;;;;;;5118168;27;20058;-73
2022/12/12 02:59:59;;;;;;;22.17;13.87;;;2.20;76.20;;;;;;5104989;27;21581;-73
2022/12/12 03:02:37;;;;;;;18.60;11.00;;;2.20;76.20;;;;;;5133639;27;20035;-73
2022/12/12 03:08:23;;;;;;;25.03;14.93;;;2.20;76.30;;;;;;5127245;27;20035;-73
2022/12/12 03:11:03;;;;;;;21.03;13.47;;;2.30;76.40;;;;;;5125210;27;20498;-68
2022/12/12 03:13:56;;;;;;;23.37;14.73;;;2.20;76.30;;;;;;5131504;27;20039;-68
2022/12/12 03:16:31;;;;;;;22.37;14.23;;;2.30;76.20;;;;;;5117771;27;20043;-73
2022/12/12 03:18:57;;;;;;;20.63;13.20;;;2.20;76.00;;;;;;5126146;27;20051;-73
2022/12/12 03:22:04;;;;;;;24.87;14.47;;;2.30;76.10;;;;;;5107879;27;20060;-73
2022/12/12 03:24:39;;;;;;;24.07;14.50;;;2.30;76.10;;;;;;5116816;27;20478;-67
2022/12/12 03:27:31;;;;;;;22.70;15.10;;;2.30;76.00;;;;;;5117225;27;20050;-68
2022/12/12 03:30:03;;;;;;;24.90;15.30;;;2.30;75.70;;;;;;5112158;27;20047;-68
2022/12/12 03:32:38;;;;;;;22.60;14.73;;;2.30;75.50;;;;;;5117892;27;20043;-72
2022/12/12 03:35:12;;;;;;;22.58;14.32;;;2.30;75.30;;;;;;5110398;27;20490;-67
2022/12/12 03:37:44;;;;;;;24.23;14.60;;;2.20;75.10;;;;;;5107487;27;20035;-68
2022/12/12 03:40:18;;;;;;;22.98;15.35;;;2.30;75.10;;;;;;5114654;27;20488;-73
2022/12/12 03:43:19;;;;;;;21.05;13.48;;;2.30;74.90;;;;;;5118654;27;20050;-73
2022/12/12 03:45:54;;;;;;;23.48;14.27;;;2.20;74.70;;;;;;5110315;27;20096;-73
2022/12/12 03:48:30;;;;;;;19.50;12.27;;;2.20;74.70;;;;;;5133550;27;20031;-73
2022/12/12 03:51:18;;;;;;;21.33;12.75;;;2.20;74.90;;;;;;5102946;27;20039;-68
2022/12/12 03:53:50;;;;;;;19.30;12.60;;;2.20;75.10;;;;;;5116980;27;20567;-67
2022/12/12 03:56:27;;;;;;;21.10;13.40;;;2.20;75.50;;;;;;5121517;27;20043;-68
2022/12/12 03:59:01;;;;;;;21.85;13.48;;;2.20;75.60;;;;;;5095639;27;20117;-73
2022/12/12 04:01:45;;;;;;;15.67;10.60;;;2.20;76.10;;;;;;5116343;27;20114;-73
2022/12/12 04:04:26;;;;;;;18.88;12.38;;;2.30;75.90;;;;;;5123445;27;20337;-73
2022/12/12 04:06:58;;;;;;;18.58;11.25;;;2.30;76.10;;;;;;5116789;27;20067;-73
2022/12/12 04:15:52;;;;;;;16.38;11.32;;;2.30;76.20;;;;;;5110032;27;20049;-68
2022/12/12 04:18:50;;;;;;;18.95;12.15;;;2.40;76.40;;;;;;5116102;27;20055;-68
2022/12/12 04:24:41;;;;;;;18.77;11.20;;;2.40;76.40;;;;;;5108935;27;20184;-68
2022/12/12 04:27:24;;;;;;;19.67;12.48;;;2.40;76.30;;;;;;5116428;27;20043;-68
2022/12/12 04:29:59;;;;;;;17.95;12.15;;;2.50;76.40;;;;;;5134155;27;20431;-68
2022/12/12 04:32:34;;;;;;;18.42;12.07;;;2.50;76.40;;;;;;5117206;27;20039;-73
2022/12/12 04:35:42;;;;;;;21.30;14.60;;;2.50;76.20;;;;;;5116167;27;20035;-73
2022/12/12 04:38:16;;;;;;;25.50;14.17;;;2.50;75.90;;;;;;5088672;27;20134;-73
2022/12/12 04:40:45;;;;;;;15.43;9.73;;;2.50;75.80;;;;;;5118483;27;20047;-68
2022/12/12 04:43:14;;;;;;;20.58;13.95;;;2.50;75.70;;;;;;5115813;27;20042;-68
2022/12/12 04:45:44;;;;;;;21.50;13.47;;;2.50;75.80;;;;;;5116070;27;20126;-68
2022/12/12 04:48:15;;;;;;;20.63;13.03;;;2.40;75.60;;;;;;5115981;27;20085;-68
2022/12/12 04:50:43;;;;;;;20.08;14.00;;;2.50;75.40;;;;;;5112940;27;20088;-69
2022/12/12 04:53:12;;;;;;;26.33;16.27;;;2.40;75.00;;;;;;5115797;27;20092;-68
2022/12/12 04:55:43;;;;;;;22.77;14.33;;;2.40;74.90;;;;;;5115619;27;20047;-68
2022/12/12 04:58:10;;;;;;;24.50;14.43;;;2.30;74.70;;;;;;5115872;27;20039;-68
2022/12/12 05:00:58;;;;;;;22.93;14.27;;;2.30;74.70;;;;;;5130683;27;20063;-68
2022/12/12 05:03:31;;;;;;;24.23;15.87;;;2.30;74.60;;;;;;5097000;27;20095;-67
2022/12/12 05:06:02;;;;;;;23.73;14.95;;;2.30;74.60;;;;;;5131992;27;20122;-68
2022/12/12 05:08:38;;;;;;;24.33;14.07;;;2.30;74.40;;;;;;5124236;27;20070;-68
2022/12/12 05:11:05;;;;;;;20.83;13.33;;;2.30;74.30;;;;;;5107929;27;20144;-68
2022/12/12 05:13:34;;;;;;;20.37;13.70;;;2.20;74.20;;;;;;5098420;27;20046;-68
2022/12/12 05:16:05;;;;;;;23.13;14.77;;;2.20;74.30;;;;;;5114345;27;20547;-68
2022/12/12 05:18:31;;;;;;;19.80;12.90;;;2.10;74.20;;;;;;5126952;27;20122;-68
2022/12/12 05:20:57;;;;;;;22.50;13.70;;;2.10;74.20;;;;;;5132047;27;20082;-68
2022/12/12 05:23:22;;;;;;;20.73;13.87;;;2.10;74.30;;;;;;5115502;27;20038;-68
2022/12/12 05:25:48;;;;;;;22.40;13.87;;;2.10;74.40;;;;;;5098094;28;20039;-67
2022/12/12 05:28:14;;;;;;;21.80;14.30;;;2.10;74.50;;;;;;5131352;27;20039;-67
2022/12/12 05:30:39;;;;;;;22.47;14.27;;;2.10;74.50;;;;;;5112809;28;20039;-68
2022/12/12 05:33:05;;;;;;;21.27;13.27;;;2.10;74.40;;;;;;5130675;28;20080;-68
2022/12/12 05:35:32;;;;;;;21.00;14.37;;;2.10;74.30;;;;;;5121003;28;20051;-69
2022/12/12 05:38:00;;;;;;;21.53;14.13;;;2.10;74.30;;;;;;5115162;28;20068;-68
2022/12/12 05:40:25;;;;;;;21.53;14.37;;;2.10;74.20;;;;;;5115495;28;20035;-68
2022/12/12 05:42:51;;;;;;;22.80;13.47;;;2.00;74.10;;;;;;5116253;28;20035;-67
2022/12/12 05:45:17;;;;;;;21.77;13.30;;;2.00;74.20;;;;;;5129501;28;20547;-73
2022/12/12 05:47:43;;;;;;;22.27;14.07;;;2.00;74.40;;;;;;5115310;28;20031;-68
2022/12/12 05:50:09;;;;;;;22.90;14.30;;;2.00;74.40;;;;;;5128369;28;20044;-67
2022/12/12 05:52:35;;;;;;;23.50;13.53;;;2.00;74.40;;;;;;5111500;28;20043;-67
2022/12/12 05:55:01;;;;;;;20.93;13.30;;;1.90;74.20;;;;;;5126301;28;20059;-67
2022/12/12 05:57:26;;;;;;;22.17;14.23;;;1.90;74.20;;;;;;5116276;28;20047;-67
2022/12/12 05:59:52;;;;;;;21.67;14.10;;;1.90;74.30;;;;;;5124593;28;20035;-67
2022/12/12 06:02:18;;;;;;;23.10;14.10;;;1.80;74.30;;;;;;5120859;28;20043;-67
2022/12/12 06:04:44;;;;;;;22.90;14.33;;;2.00;74.50;;;;;;5123113;28;20084;-67
2022/12/12 06:07:09;;;;;;;21.13;13.63;;;1.90;74.90;;;;;;5114985;28;20043;-67
2022/12/12 06:09:35;;;;;;;21.93;13.50;;;1.80;74.40;;;;;;5114850;28;20087;-67
2022/12/12 06:12:01;;;;;;;20.87;13.50;;;1.80;74.40;;;;;;5119828;28;20073;-67
2022/12/12 06:14:27;;;;;;;24.40;14.03;;;1.80;74.80;;;;;;5114878;28;20070;-67
2022/12/12 06:16:52;;;;;;;23.93;15.67;;;1.70;74.40;;;;;;5110711;28;20172;-66
2022/12/12 06:19:19;;;;;;;23.27;14.23;;;1.70;74.60;;;;;;5094306;28;20371;-66
2022/12/12 06:21:45;;;;;;;20.83;13.00;;;1.70;74.60;;;;;;5111192;28;20123;-67
2022/12/12 06:24:11;;;;;;;22.87;14.10;;;1.70;74.70;;;;;;5111436;28;20372;-67
2022/12/12 06:26:37;;;;;;;21.70;14.30;;;1.70;74.80;;;;;;5111708;28;20032;-67
2022/12/12 06:29:03;;;;;;;21.27;14.03;;;1.70;74.80;;;;;;5114077;28;20101;-67
2022/12/12 06:31:29;;;;;;;21.73;14.23;;;1.70;74.80;;;;;;5113388;28;20089;-66
2022/12/12 06:33:55;;;;;;;22.60;14.13;;;1.70;74.90;;;;;;5113567;28;20055;-67
2022/12/12 06:36:23;;;;;;;24.53;13.53;;;1.60;74.80;;;;;;5114688;28;20483;-66
2022/12/12 06:38:59;;;;;;;23.93;14.87;;;1.60;74.80;;;;;;5114657;28;20044;-66
2022/12/12 06:41:27;;;;;;;20.80;12.97;;;1.60;74.80;;;;;;5111875;28;20390;-67
2022/12/12 06:43:53;;;;;;;21.23;13.37;;;1.60;74.90;;;;;;5114584;28;20050;-66
2022/12/12 06:46:22;;;;;;;21.80;13.87;;;1.60;75.00;;;;;;5097759;28;20036;-66
2022/12/12 06:48:48;;;;;;;21.77;14.17;;;1.60;75.00;;;;;;5113423;28;20043;-66
2022/12/12 06:51:20;;;;;;;24.33;13.97;;;1.60;75.10;;;;;;5114590;28;20051;-71
2022/12/12 06:53:46;;;;;;;19.73;13.20;;;1.60;75.00;;;;;;5114233;28;20040;-72
2022/12/12 06:56:15;;;;;;;21.53;13.57;;;1.70;75.00;;;;;;5096104;28;20028;-71
2022/12/12 06:58:41;;;;;;;21.43;14.17;;;1.60;75.00;;;;;;5114473;28;20035;-71
2022/12/12 07:01:07;;;;;;;22.60;14.07;;;1.60;75.00;;;;;;5097461;28;20096;-72
2022/12/12 07:03:33;;;;;;;22.97;13.43;;;1.60;75.00;;;;;;5114578;28;20069;-71
2022/12/12 07:06:00;;;;;;;21.33;12.33;;;1.60;74.90;;;;;;5114535;28;20075;-71
2022/12/12 07:08:27;;;;;;;23.27;13.87;;;1.70;75.00;;;;;;5114115;28;20078;-71
2022/12/12 07:10:54;;;;;;;21.13;13.57;;;1.60;75.00;;;;;;5114168;28;20090;-72
2022/12/12 07:13:19;;;;;;;21.13;13.57;;;1.70;75.20;;;;;;5114075;28;20040;-72
2022/12/12 07:15:48;;;;;;;21.60;13.30;;;1.70;75.20;;;;;;5114225;28;20092;-71
2022/12/12 07:18:16;;;;;;;24.23;14.37;;;1.70;75.20;;;;;;5130367;27;20062;-72
2022/12/12 07:20:43;;;;;;;23.67;14.57;;;1.70;75.30;;;;;;5117506;27;20043;-72
2022/12/12 07:23:10;;;;;;;23.20;14.37;;;1.90;75.40;;;;;;5134376;27;20409;-72
2022/12/12 07:25:42;;;;;;;22.53;13.83;;;1.70;75.70;;;;;;5122804;27;20118;-72
2022/12/12 07:28:12;;;;;;;20.77;11.80;;;1.70;75.30;;;;;;5114293;27;20050;-72
2022/12/12 07:30:43;;;;;;;20.60;12.77;;;1.70;75.40;;;;;;5116948;27;20570;-71
2022/12/12 07:33:10;;;;;;;21.97;13.63;;;1.70;75.60;;;;;;5134100;27;20063;-71
2022/12/12 07:35:35;;;;;;;17.93;11.97;;;1.70;75.80;;;;;;5114770;27;20050;-72
2022/12/12 07:38:02;;;;;;;23.23;14.80;;;1.80;76.00;;;;;;5113882;27;20052;-72
2022/12/12 07:40:28;;;;;;;22.10;14.20;;;1.80;76.00;;;;;;5113503;27;20036;-72
2022/12/12 07:42:54;;;;;;;22.00;14.80;;;1.80;75.80;;;;;;5118199;27;20114;-72
2022/12/12 07:45:19;;;;;;;22.53;14.40;;;1.80;75.50;;;;;;5133749;27;20121;-72
2022/12/12 07:47:45;;;;;;;21.03;13.43;;;1.80;75.20;;;;;;5097006;27;20081;-72
2022/12/12 07:50:12;;;;;;;23.00;13.83;;;1.80;75.20;;;;;;5097085;28;20044;-71
2022/12/12 07:52:37;;;;;;;23.07;15.00;;;1.80;75.20;;;;;;5123411;27;20039;-72
2022/12/12 07:55:04;;;;;;;19.23;12.20;;;1.80;75.00;;;;;;5133624;27;20035;-71
2022/12/12 07:57:30;;;;;;;19.67;12.53;;;1.80;75.10;;;;;;5124982;27;20486;-72
2022/12/12 07:59:56;;;;;;;17.77;12.17;;;1.80;75.30;;;;;;5113799;28;20058;-72
2022/12/12 08:02:22;;;;;;;22.40;13.97;;;1.80;75.50;;;;;;5128663;27;20038;-72
2022/12/12 08:04:48;;;;;;;22.40;13.90;;;1.80;75.60;;;;;;5124475;27;20046;-72
2022/12/12 08:07:14;;;;;;;22.77;13.93;;;1.90;75.80;;;;;;5133424;27;20031;-71
2022/12/12 08:09:39;;;;;;;21.07;13.03;;;1.80;75.80;;;;;;5132703;27;20039;-71
2022/12/12 08:12:05;;;;;;;21.03;14.03;;;1.90;75.80;;;;;;5113175;27;20070;-72
2022/12/12 08:14:31;;;;;;;23.93;15.03;;;1.90;75.70;;;;;;5096227;28;20039;-67
2022/12/12 08:16:57;;;;;;;21.97;14.17;;;1.90;75.50;;;;;;5113529;27;20062;-67
2022/12/12 08:19:23;;;;;;;19.97;13.20;;;1.90;75.30;;;;;;5112637;28;20056;-66
2022/12/12 08:21:48;;;;;;;21.37;12.80;;;1.90;75.10;;;;;;5095705;28;20122;-67
2022/12/12 08:24:15;;;;;;;21.97;12.87;;;1.90;75.20;;;;;;5112782;28;20031;-67
2022/12/12 08:26:42;;;;;;;24.40;15.33;;;1.90;75.70;;;;;;5112717;28;20043;-67
2022/12/12 08:29:07;;;;;;;22.03;13.93;;;2.00;75.30;;;;;;5112841;28;20122;-67
2022/12/12 08:31:34;;;;;;;19.17;12.07;;;1.90;75.10;;;;;;5112679;28;20570;-67
2022/12/12 08:34:00;;;;;;;19.53;12.27;;;1.90;75.10;;;;;;5112304;28;20071;-67
2022/12/12 08:36:31;;;;;;;20.13;12.83;;;2.00;75.30;;;;;;5112565;28;20066;-67
2022/12/12 08:39:09;;;;;;;23.65;14.30;;;2.00;75.50;;;;;;5112597;28;20039;-67
2022/12/12 08:41:37;;;;;;;21.77;12.87;;;2.00;75.80;;;;;;5112467;28;20063;-67
2022/12/12 08:44:03;;;;;;;19.92;12.77;;;2.10;75.90;;;;;;5095328;28;20518;-67
2022/12/12 08:46:28;;;;;;;20.63;13.80;;;2.10;76.00;;;;;;5112143;28;20039;-67
2022/12/12 08:48:54;;;;;;;20.27;13.88;;;2.20;76.20;;;;;;5112220;28;20464;-67
2022/12/12 08:51:20;;;;;;;20.10;12.60;;;2.20;76.20;;;;;;5111324;28;20043;-67
2022/12/12 08:53:50;;;;;;;20.37;12.67;;;2.20;76.30;;;;;;5112203;28;20104;-67
2022/12/12 08:56:16;;;;;;;23.48;14.13;;;2.30;76.50;;;;;;5112058;28;20035;-67
2022/12/12 08:58:43;;;;;;;22.83;14.07;;;2.30;76.30;;;;;;5095323;28;20039;-67
2022/12/12 09:01:14;;;;;;;20.97;13.97;;;2.30;75.90;;;;;;5111875;28;20039;-67
2022/12/12 09:03:40;;;;;;;20.70;13.93;;;2.30;75.50;;;;;;5111822;28;20122;-67
2022/12/12 09:06:09;;;;;;;23.83;14.37;;;2.30;75.40;;;;;;5111916;28;20050;-67
2022/12/12 09:08:35;;;;;;;22.00;14.70;;;2.30;75.30;;;;;;5112241;28;20039;-67
2022/12/12 09:11:00;;;;;;;23.17;14.18;;;2.30;74.90;;;;;;5111840;28;20048;-67
2022/12/12 09:13:26;;;;;;;21.92;14.20;;;2.30;74.70;;;;;;5111655;28;20031;-72
2022/12/12 09:15:52;;;;;;;21.45;13.93;;;2.30;74.60;;;;;;5111884;28;20395;-72
2022/12/12 09:18:19;;;;;;;22.03;14.00;;;2.20;74.30;;;;;;5112883;28;20047;-72
2022/12/12 09:20:57;;;;;;;23.48;14.95;;;2.20;74.20;;;;;;5111909;28;20044;-72
2022/12/12 09:23:24;;;;;;;21.90;13.40;;;2.20;74.20;;;;;;5111796;28;20044;-72
2022/12/12 09:25:50;;;;;;;23.10;13.32;;;2.20;74.30;;;;;;5112085;28;20098;-72
2022/12/12 09:28:17;;;;;;;19.30;13.00;;;2.20;74.50;;;;;;5094936;28;20078;-72
2022/12/12 09:30:44;;;;;;;23.67;14.47;;;2.20;74.60;;;;;;5111786;28;20101;-72
2022/12/12 09:33:11;;;;;;;23.55;14.82;;;2.20;74.70;;;;;;5111706;28;20046;-71
2022/12/12 09:35:37;;;;;;;21.13;14.13;;;2.20;74.70;;;;;;5111824;28;20043;-71
2022/12/12 09:38:04;;;;;;;23.88;14.73;;;2.30;74.70;;;;;;5111751;28;20035;-72
2022/12/12 09:41:11;;;;;;;22.23;13.02;;;2.20;74.50;;;;;;5111439;28;20040;-71
2022/12/12 09:43:53;;;;;;;22.03;13.77;;;2.30;74.60;;;;;;5099362;28;20052;-72
2022/12/12 09:46:31;;;;;;;23.35;14.63;;;2.30;74.90;;;;;;5111619;28;20583;-72
2022/12/12 09:49:12;;;;;;;24.05;15.50;;;2.30;75.00;;;;;;5111529;28;20054;-72
2022/12/12 09:51:39;;;;;;;22.42;13.52;;;2.40;75.10;;;;;;5111714;28;20516;-73
2022/12/12 09:54:06;;;;;;;23.80;15.07;;;2.40;75.00;;;;;;5111568;28;20035;-73
2022/12/12 09:56:51;;;;;;;21.38;14.43;;;2.40;74.70;;;;;;5111367;28;20039;-72
2022/12/12 09:59:42;;;;;;;21.17;14.82;;;2.40;74.50;;;;;;5111782;28;20449;-72
2022/12/12 10:02:08;;;;;;;21.58;13.73;;;2.40;74.20;;;;;;5108949;28;20360;-72
2022/12/12 10:04:52;;;;;;;23.50;14.90;;;2.40;74.30;;;;;;5115172;28;20060;-72
2022/12/12 10:07:41;;;;;;;21.25;13.43;;;2.50;74.30;;;;;;5115779;28;20074;-72
2022/12/12 10:10:32;;;;;;;27.25;16.70;;;3.10;74.70;;;;;;5056431;28;20064;-72
2022/12/12 10:13:00;;;;;;;22.77;14.48;;;2.50;74.20;;;;;;5095246;28;20082;-71
2022/12/12 10:15:41;;;;;;;23.90;15.05;;;2.50;74.10;;;;;;5079015;28;20083;-72
2022/12/12 10:18:21;;;;;;;22.20;14.20;;;2.50;73.70;;;;;;5118635;27;20051;-71
2022/12/12 10:20:50;;;;;;;27.13;16.08;;;2.50;73.50;;;;;;5118696;27;20142;-72
2022/12/12 10:23:38;;;;;;;22.33;14.85;;;2.50;73.40;;;;;;5134970;27;20039;-72
2022/12/12 10:26:09;;;;;;;23.33;15.45;;;3.10;73.40;;;;;;5135484;27;20043;-72
2022/12/12 10:28:35;;;;;;;25.05;15.73;;;2.50;73.10;;;;;;5133627;27;20048;-72
2022/12/12 10:31:25;;;;;;;24.13;15.27;;;2.50;73.00;;;;;;5135611;27;20050;-67
2022/12/12 10:33:50;;;;;;;24.67;15.48;;;2.50;73.10;;;;;;5135476;27;20443;-67
2022/12/12 10:36:54;;;;;;;24.67;14.85;;;2.50;73.20;;;;;;5127315;27;20084;-67
2022/12/12 10:39:38;;;;;;;24.45;15.05;;;2.50;73.00;;;;;;5115206;27;20118;-67
2022/12/12 10:42:23;;;;;;;22.10;13.88;;;2.50;73.10;;;;;;5116281;27;20047;-67
2022/12/12 10:45:16;;;;;;;24.83;16.15;;;2.50;72.90;;;;;;5118341;27;20079;-67
2022/12/12 10:47:43;;;;;;;23.52;15.43;;;2.50;72.90;;;;;;5134761;27;20050;-67
2022/12/12 10:50:09;;;;;;;23.98;15.40;;;2.50;73.20;;;;;;5134786;27;20099;-67
2022/12/12 10:52:35;;;;;;;23.05;15.77;;;2.50;73.60;;;;;;5134614;27;20126;-67
2022/12/12 10:55:02;;;;;;;23.80;14.88;;;2.50;73.30;;;;;;5121700;27;20117;-67
2022/12/12 10:57:33;;;;;;;23.35;15.60;;;2.50;73.30;;;;;;5115221;27;20046;-67
2022/12/12 11:00:14;;;;;;;23.13;15.07;;;2.50;73.20;;;;;;5115076;27;20067;-67
2022/12/12 11:02:41;;;;;;;24.95;15.73;;;2.60;73.30;;;;;;5115628;27;20116;-67
2022/12/12 11:05:19;;;;;;;28.02;16.55;;;3.00;73.70;;;;;;5120709;27;20402;-67
2022/12/12 11:07:47;;;;;;;29.00;16.87;;;2.60;73.40;;;;;;5125680;27;20047;-67
2022/12/12 11:10:20;;;;;;;24.67;16.25;;;2.60;73.10;;;;;;5134557;27;20117;-67
2022/12/12 11:12:58;;;;;;;28.35;16.70;;;2.60;72.80;;;;;;5123384;27;20054;-67
2022/12/12 11:15:39;;;;;;;26.35;16.63;;;2.60;72.80;;;;;;5113900;27;20047;-67
2022/12/12 11:18:06;;;;;;;25.37;15.97;;;2.60;72.80;;;;;;5115581;27;20059;-67
2022/12/12 11:20:31;;;;;;;24.15;16.02;;;2.70;72.90;;;;;;5117571;27;20168;-67
2022/12/12 11:22:57;;;;;;;25.40;16.13;;;2.60;72.90;;;;;;5133941;27;20114;-67
2022/12/12 11:25:29;;;;;;;24.80;16.42;;;2.70;72.80;;;;;;5133916;27;20035;-67
2022/12/12 11:27:58;;;;;;;27.33;16.77;;;3.00;72.90;;;;;;5116927;27;20059;-67
2022/12/12 11:30:34;;;;;;;26.40;16.65;;;2.70;72.50;;;;;;5131225;27;20114;-67
2022/12/12 11:33:02;;;;;;;26.25;15.68;;;2.90;72.80;;;;;;5117941;27;20480;-67
2022/12/12 11:35:35;;;;;;;25.55;16.42;;;2.70;72.90;;;;;;5130114;27;20118;-67
2022/12/12 11:38:19;;;;;;;26.08;17.27;;;2.70;73.10;;;;;;5108992;27;20046;-72
2022/12/12 11:40:54;;;;;;;24.25;14.82;;;2.80;73.10;;;;;;5130877;27;20111;-73
2022/12/12 11:43:33;;;;;;;23.55;15.57;;;2.90;73.00;;;;;;5134014;27;20046;-73
2022/12/12 11:45:58;;;;;;;24.98;15.45;;;2.90;72.60;;;;;;5116691;27;20107;-72
2022/12/12 11:48:32;;;;;;;23.90;15.00;;;2.90;72.50;;;;;;5131307;27;20039;-72
2022/12/12 11:50:57;;;;;;;23.95;15.20;;;2.90;72.30;;;;;;5100023;27;20670;-72
2022/12/12 11:53:24;;;;;;;26.67;16.60;;;2.90;72.00;;;;;;5117118;27;20043;-67
2022/12/12 11:56:11;;;;;;;24.02;15.70;;;2.90;71.90;;;;;;5111790;27;20047;-67
2022/12/12 11:59:11;;;;;;;24.40;14.25;;;2.90;71.90;;;;;;5121275;27;20381;-68
2022/12/12 12:02:26;;;;;;;22.00;14.40;;;2.90;72.00;;;;;;5112958;27;20419;-67
2022/12/12 12:05:23;;;;;;;24.88;14.48;;;3.00;71.90;;;;;;5112803;27;20047;-67
2022/12/12 12:08:19;;;;;;;24.30;15.73;;;3.00;71.70;;;;;;5126781;27;20063;-67
2022/12/12 12:11:15;;;;;;;25.92;15.98;;;3.00;71.60;;;;;;5121732;27;20046;-67
2022/12/12 12:14:07;;;;;;;25.98;16.23;;;3.00;71.70;;;;;;5133280;27;20096;-72
2022/12/12 12:16:39;;;;;;;20.85;14.50;;;3.10;71.60;;;;;;5110976;27;20482;-72
2022/12/12 12:19:35;;;;;;;24.20;14.82;;;3.10;71.40;;;;;;5112921;28;20414;-73
2022/12/12 12:22:14;;;;;;;23.98;13.73;;;3.10;70.90;;;;;;5111438;28;20046;-72
2022/12/12 12:25:13;;;;;;;22.70;14.50;;;3.10;70.70;;;;;;5095281;28;20054;-72
2022/12/12 12:28:01;;;;;;;23.95;15.57;;;3.10;70.20;;;;;;5094556;28;20122;-73
2022/12/12 12:30:52;;;;;;;23.35;14.48;;;3.10;70.20;;;;;;5112661;28;20487;-74
2022/12/12 12:33:53;;;;;;;20.98;14.35;;;3.10;70.20;;;;;;5111862;28;20128;-73
2022/12/12 12:37:05;;;;;;;26.10;15.68;;;3.10;69.90;;;;;;5093307;28;20035;-67
2022/12/12 12:39:46;;;;;;;23.73;15.45;;;3.10;70.00;;;;;;5070093;28;20040;-67
2022/12/12 12:42:36;;;;;;;22.83;14.50;;;3.10;70.00;;;;;;5112358;28;20038;-72
2022/12/12 12:45:16;;;;;;;22.58;14.30;;;3.10;70.10;;;;;;5112301;28;20050;-72
2022/12/12 12:47:46;;;;;;;24.15;14.25;;;3.10;70.10;;;;;;5112304;28;20044;-72
2022/12/12 12:50:20;;;;;;;20.80;13.60;;;3.10;70.20;;;;;;5112267;28;20081;-72
2022/12/12 12:53:23;;;;;;;22.30;14.43;;;3.10;70.20;;;;;;5112647;28;20360;-72
2022/12/12 12:55:52;;;;;;;20.80;14.77;;;3.10;69.60;;;;;;5098949;28;20079;-72
2022/12/12 12:58:26;;;;;;;23.08;14.48;;;3.10;69.70;;;;;;5113496;28;20973;-67
2022/12/12 13:01:05;;;;;;;23.50;14.32;;;3.10;69.60;;;;;;5112055;28;20043;-67
2022/12/12 13:03:48;;;;;;;22.30;13.35;;;3.10;69.70;;;;;;5112126;28;20031;-67
2022/12/12 13:06:23;;;;;;;21.25;13.43;;;3.10;69.80;;;;;;5112240;28;20425;-67
2022/12/12 13:08:56;;;;;;;;;;;3.10;69.70;;;;;;5112410;28;20082;-67
2022/12/12 13:11:39;;;;;;;26.25;15.27;;;3.10;69.60;;;;;;5111990;28;20526;-67
2022/12/12 13:14:44;;;;;;;22.02;14.63;;;3.10;69.70;;;;;;5111710;28;20096;-67
2022/12/12 13:17:44;;;;;;;23.63;15.25;;;3.10;69.30;;;;;;5091118;28;20040;-67